Denali National Park, AK

8:44 PM AKDT on March 31, 2015 (GMT -0800)
RAWS | | Change Station
CLOSE
Current Station
Personal Weather Station
Location: Denali National Park, AK
Elevation: 862 ft
Nearby Weather Stations

Elev 862 ft 63.65 °N, 151.64 °W | Updated 54 minutes ago

Clear
Clear
35 °F
Feels Like 35 °F
N
3
Wind Variable Wind from NE
Gusts 7.0 mph

Today
High -- | Low -- °F
--% Chance of Precip.
Yesterday
High -- | Low -- °F
Precip. -- in
7:26 AM 8:51 PM
Waxing Gibbous, 90% visible
Pressure 29.65 in
Visibility 10.0 miles
Clouds Clear
Windchill 35 °F
Dew Point 18 °F
Humidity 49%
Rainfall in
Snow Depth Not available.
UV 0 out of 12
Pollen Not available.
Air Quality Not available.
Flu Activity Not available.
METAR PAMH 010436Z AUTO 00000KT 10SM CLR 01/M08 A2965 RMK AO1

More Conditions Fewer Conditions

Pressure 29.65 in
Visibility 10.0 miles
Clouds Clear
Windchill 35 °F
Dew Point 18 °F
Humidity 49%
Rainfall in
Snow Depth Not available.
UV 0 out of 12
Pollen Not available.
Air Quality Not available.
Flu Activity Not available.
METAR PAMH 010436Z AUTO 00000KT 10SM CLR 01/M08 A2965 RMK AO1

More Conditions Fewer Conditions

10-Day Weather Forecast

Almanac

Astronomy

Mar. 31, 2015 Rise Set
Actual Time
Civil Twilight
Nautical Twilight
Astronomical Twilight
Moon
Length of Visible Light
Length of Day
Tomorrow will be .
, % of the Moon is Illuminated

Today's Extremes

State Highs State Lows

Community

WunderPhotos

Upload Photos

1,809,919 photos uploaded!

WunderBlogs® & News

Nearby

Air Quality

  Air Quality AQ Index Pollutant
Not available.

Snow Depth

Station Depth Elevation

Earthquake Activity

City Distance Mag. Time & Date
Minimum magnitude displayed is 2.5.

Coastal Water Temperatures

Place Temperature

Stations

Nearby Weather Stations

Station Location Temp. Windchill Dew Point Humidity Wind Precip. Elev Updated Type